Time;durP1;ratioP1;P1;durP2;ratioP2;P2;SDS_P1;SDS_P2;PMS_P1;PMS_P2;Temp;Humidity;BMP_temperature;BMP_pressure;BME280_temperature;BME280_humidity;BME280_pressure;Samples;Min_cycle;Max_cycle;Signal;HPM_P1;HPM_P2
2024/01/03 00:00:24;;;;;;;0.00;0.00;;;10.10;99.90;;;;;;5053326;28;20656;-67
2024/01/03 00:02:50;;;;;;;0.00;0.00;;;10.10;99.90;;;;;;5053192;28;20181;-67
2024/01/03 00:05:39;;;;;;;0.00;0.00;;;10.10;99.90;;;;;;5052939;28;20656;-67
2024/01/03 00:08:11;;;;;;;0.00;0.00;;;10.10;99.90;;;;;;5052747;28;20231;-67
2024/01/03 00:10:47;;;;;;;0.00;0.00;;;10.10;99.90;;;;;;5052762;28;20194;-66
2024/01/03 00:13:33;;;;;;;0.00;0.00;;;10.10;99.90;;;;;;5059300;28;20223;-66
2024/01/03 00:15:59;;;;;;;0.00;0.00;;;10.00;99.90;;;;;;5053043;28;20182;-67
2024/01/03 00:18:49;;;;;;;0.00;0.00;;;9.80;99.90;;;;;;5053161;28;20268;-66
2024/01/03 00:21:23;;;;;;;0.00;0.00;;;9.70;99.90;;;;;;5052979;28;20178;-68
2024/01/03 00:23:55;;;;;;;0.00;0.00;;;9.50;99.90;;;;;;5051255;28;20263;-68
2024/01/03 00:26:28;;;;;;;0.00;0.00;;;9.40;99.90;;;;;;5036483;28;20491;-68
2024/01/03 00:28:54;;;;;;;0.00;0.00;;;9.30;99.90;;;;;;5052288;28;20207;-68
2024/01/03 00:31:43;;;;;;;0.00;0.00;;;9.10;99.90;;;;;;5052745;28;20702;-67
2024/01/03 00:34:21;;;;;;;0.00;0.00;;;9.10;99.90;;;;;;5052114;28;20308;-67
2024/01/03 00:36:51;;;;;;;0.00;0.00;;;9.00;99.90;;;;;;5051212;28;20835;-67
2024/01/03 00:39:29;;;;;;;0.00;0.00;;;8.90;99.90;;;;;;5051662;28;20316;-68
2024/01/03 00:41:56;;;;;;;0.00;0.00;;;8.90;99.90;;;;;;5062372;28;20215;-68
2024/01/03 00:44:22;;;;;;;0.00;0.00;;;8.90;99.90;;;;;;5052589;28;20261;-68
2024/01/03 00:46:48;;;;;;;0.00;0.00;;;8.80;99.90;;;;;;5051665;28;20181;-67
2024/01/03 00:49:14;;;;;;;0.00;0.00;;;8.80;99.90;;;;;;5051919;28;20694;-67
2024/01/03 00:51:41;;;;;;;0.00;0.00;;;8.80;99.90;;;;;;5052199;28;20231;-68
2024/01/03 00:54:07;;;;;;;0.00;0.00;;;8.80;99.90;;;;;;5052127;28;20225;-68
2024/01/03 00:56:32;;;;;;;0.00;0.00;;;8.80;99.90;;;;;;5050272;28;20193;-68
2024/01/03 00:58:58;;;;;;;0.00;0.00;;;8.90;99.90;;;;;;5051708;28;20258;-68
2024/01/03 01:01:24;;;;;;;0.00;0.00;;;8.90;99.90;;;;;;5052011;28;20182;-67
2024/01/03 01:03:50;;;;;;;0.00;0.00;;;8.90;99.90;;;;;;5051661;28;20189;-67
2024/01/03 01:06:15;;;;;;;0.00;0.00;;;8.90;99.90;;;;;;5051957;28;20190;-68
2024/01/03 01:08:41;;;;;;;0.08;0.08;;;9.00;99.90;;;;;;5052010;28;20181;-67
2024/01/03 01:11:06;;;;;;;0.00;0.00;;;9.00;99.90;;;;;;5056537;28;20220;-68
2024/01/03 01:13:32;;;;;;;0.00;0.00;;;9.10;99.90;;;;;;5057752;28;20252;-68
2024/01/03 01:15:57;;;;;;;0.00;0.00;;;9.10;99.90;;;;;;5051143;28;20185;-68
2024/01/03 01:18:23;;;;;;;0.00;0.00;;;9.20;99.90;;;;;;5050481;28;20272;-68
2024/01/03 01:20:49;;;;;;;0.00;0.00;;;9.20;99.90;;;;;;5051774;28;20319;-67
2024/01/03 01:23:14;;;;;;;0.00;0.00;;;9.30;99.90;;;;;;5051873;28;20207;-68
2024/01/03 01:25:40;;;;;;;0.00;0.00;;;9.30;99.90;;;;;;5051626;28;20215;-68
2024/01/03 01:28:05;;;;;;;0.05;0.05;;;9.30;99.90;;;;;;5051403;28;20189;-68
2024/01/03 01:30:31;;;;;;;0.00;0.00;;;9.30;99.90;;;;;;5051487;28;20656;-67
2024/01/03 01:32:56;;;;;;;0.00;0.00;;;9.30;99.90;;;;;;5051420;28;20303;-67
2024/01/03 01:35:22;;;;;;;0.00;0.00;;;9.40;99.90;;;;;;5051467;28;20322;-68
2024/01/03 01:37:48;;;;;;;0.00;0.00;;;9.40;99.90;;;;;;5051314;28;20213;-68
2024/01/03 01:40:14;;;;;;;0.00;0.00;;;9.50;99.90;;;;;;5050874;28;20919;-69
2024/01/03 01:42:44;;;;;;;0.00;0.00;;;9.60;99.90;;;;;;5062212;28;20230;-68
2024/01/03 01:45:10;;;;;;;0.00;0.00;;;9.60;99.90;;;;;;5049421;28;20185;-68
2024/01/03 01:47:40;;;;;;;0.00;0.00;;;9.60;99.90;;;;;;5050941;28;20181;-69
2024/01/03 01:50:08;;;;;;;0.00;0.00;;;9.60;99.90;;;;;;5050783;28;20193;-70
2024/01/03 01:52:34;;;;;;;0.00;0.00;;;9.70;99.90;;;;;;5051003;28;20201;-70
2024/01/03 01:55:00;;;;;;;0.00;0.00;;;9.80;99.90;;;;;;5051028;28;20200;-70
2024/01/03 01:57:28;;;;;;;0.00;0.00;;;9.80;99.90;;;;;;5050473;28;20185;-69
2024/01/03 01:59:53;;;;;;;0.00;0.00;;;9.80;99.90;;;;;;5030021;28;20182;-68
2024/01/03 02:02:19;;;;;;;0.00;0.00;;;9.90;99.90;;;;;;5050610;28;20235;-69
2024/01/03 02:04:45;;;;;;;0.00;0.00;;;9.90;99.90;;;;;;5050960;28;20208;-68
2024/01/03 02:07:10;;;;;;;0.00;0.00;;;9.90;99.90;;;;;;5050827;28;20180;-67
2024/01/03 02:09:36;;;;;;;0.00;0.00;;;9.90;99.90;;;;;;5049865;28;20583;-68
2024/01/03 02:12:02;;;;;;;0.00;0.00;;;9.90;99.90;;;;;;5055852;28;20185;-68
2024/01/03 02:14:27;;;;;;;0.00;0.00;;;10.00;99.90;;;;;;5034930;28;20730;-69
2024/01/03 02:16:53;;;;;;;0.00;0.00;;;9.90;99.90;;;;;;5050720;28;20177;-68
2024/01/03 02:19:18;;;;;;;0.00;0.00;;;10.00;99.90;;;;;;5050744;28;20189;-68
2024/01/03 02:21:44;;;;;;;0.00;0.00;;;10.00;99.90;;;;;;5050841;28;20181;-68
2024/01/03 02:24:09;;;;;;;0.00;0.00;;;10.00;99.90;;;;;;5050345;28;20181;-67
2024/01/03 02:26:35;;;;;;;0.00;0.00;;;10.00;99.90;;;;;;5049514;28;20189;-68
2024/01/03 02:29:00;;;;;;;0.00;0.00;;;10.00;99.90;;;;;;5050609;28;20191;-68
2024/01/03 02:31:26;;;;;;;0.00;0.00;;;10.00;99.90;;;;;;5050823;28;20193;-68
2024/01/03 02:33:51;;;;;;;0.00;0.00;;;10.00;99.90;;;;;;5050615;28;20295;-68
2024/01/03 02:36:17;;;;;;;0.00;0.00;;;10.00;99.90;;;;;;5048631;28;20182;-68
2024/01/03 02:38:46;;;;;;;0.00;0.00;;;10.00;99.90;;;;;;5050560;28;20173;-69
2024/01/03 02:41:12;;;;;;;0.00;0.00;;;10.10;99.90;;;;;;5049806;28;20228;-68
2024/01/03 02:43:37;;;;;;;0.00;0.00;;;10.10;99.90;;;;;;5049816;28;20211;-67
2024/01/03 02:46:03;;;;;;;0.00;0.00;;;10.20;99.90;;;;;;5029436;28;20573;-69
2024/01/03 02:48:29;;;;;;;0.00;0.00;;;10.20;99.90;;;;;;5050738;28;20260;-68
2024/01/03 02:50:54;;;;;;;0.00;0.00;;;10.30;99.90;;;;;;5050576;28;20201;-68
2024/01/03 02:53:20;;;;;;;0.00;0.00;;;10.30;99.90;;;;;;5050524;28;20296;-68
2024/01/03 02:55:45;;;;;;;0.00;0.00;;;10.30;99.90;;;;;;5050575;28;20178;-67
2024/01/03 02:58:11;;;;;;;0.00;0.00;;;10.30;99.90;;;;;;5048855;28;20556;-68
2024/01/03 03:00:36;;;;;;;0.00;0.00;;;10.30;99.90;;;;;;5050615;28;20185;-68
2024/01/03 03:03:02;;;;;;;0.00;0.00;;;10.30;99.90;;;;;;5053900;28;20609;-68
2024/01/03 03:05:28;;;;;;;0.00;0.00;;;10.30;99.90;;;;;;5054455;28;20276;-69
2024/01/03 03:07:53;;;;;;;0.00;0.00;;;10.40;99.90;;;;;;5053752;28;20221;-69
2024/01/03 03:10:19;;;;;;;0.00;0.00;;;10.30;99.90;;;;;;5053864;28;20196;-69
2024/01/03 03:12:44;;;;;;;0.00;0.00;;;10.30;99.90;;;;;;5053879;28;20722;-70
2024/01/03 03:15:10;;;;;;;0.00;0.00;;;10.30;99.90;;;;;;5054113;28;20196;-67
2024/01/03 03:17:35;;;;;;;0.00;0.00;;;10.30;99.90;;;;;;5054174;28;20551;-67
2024/01/03 03:20:01;;;;;;;0.00;0.00;;;10.40;99.90;;;;;;5053949;28;20753;-67
2024/01/03 03:22:26;;;;;;;0.00;0.00;;;10.40;99.90;;;;;;5053752;28;20170;-68
2024/01/03 03:24:52;;;;;;;0.00;0.00;;;10.40;99.90;;;;;;5053807;28;20235;-68
2024/01/03 03:27:17;;;;;;;0.00;0.00;;;10.40;99.90;;;;;;5053944;28;20547;-68
2024/01/03 03:29:43;;;;;;;0.00;0.00;;;10.40;99.90;;;;;;5053755;28;20181;-68
2024/01/03 03:32:10;;;;;;;0.00;0.00;;;10.50;99.90;;;;;;5053692;28;20200;-68
2024/01/03 03:34:35;;;;;;;0.00;0.00;;;10.50;99.90;;;;;;5053610;28;20188;-68
2024/01/03 03:37:01;;;;;;;0.00;0.00;;;10.50;99.90;;;;;;5053685;28;20177;-67
2024/01/03 03:39:27;;;;;;;0.00;0.00;;;10.60;99.90;;;;;;5053850;28;20189;-67
2024/01/03 03:41:52;;;;;;;0.00;0.00;;;10.50;99.90;;;;;;5052175;28;20577;-69
2024/01/03 03:44:18;;;;;;;0.00;0.00;;;10.50;99.90;;;;;;5053342;28;20177;-68
2024/01/03 03:46:43;;;;;;;0.00;0.00;;;10.50;99.90;;;;;;5053583;28;20188;-68
2024/01/03 03:49:09;;;;;;;0.00;0.00;;;10.60;99.90;;;;;;5053497;28;20690;-69
2024/01/03 03:51:34;;;;;;;0.00;0.00;;;10.60;99.90;;;;;;5053633;28;20190;-69
2024/01/03 03:54:00;;;;;;;0.00;0.00;;;10.60;99.90;;;;;;5053359;28;20225;-66
2024/01/03 03:56:28;;;;;;;0.00;0.00;;;10.60;99.90;;;;;;5053355;28;20532;-67
2024/01/03 03:58:54;;;;;;;0.00;0.00;;;10.60;99.90;;;;;;5053330;28;20183;-67
2024/01/03 04:01:20;;;;;;;1.00;0.80;;;10.60;99.90;;;;;;5053442;28;20641;-67
2024/01/03 04:03:46;;;;;;;0.00;0.00;;;10.60;99.90;;;;;;5053243;28;20810;-67
2024/01/03 04:06:15;;;;;;;0.08;0.08;;;10.60;99.90;;;;;;5052373;28;20181;-67
2024/01/03 04:08:44;;;;;;;0.00;0.00;;;10.60;99.90;;;;;;5051264;28;20227;-67
2024/01/03 04:11:10;;;;;;;0.00;0.00;;;10.70;99.90;;;;;;5052002;28;20661;-69
2024/01/03 04:13:38;;;;;;;0.00;0.00;;;10.70;99.90;;;;;;5052559;28;20335;-68
2024/01/03 04:16:07;;;;;;;0.00;0.00;;;10.70;99.90;;;;;;5052414;28;20184;-67
2024/01/03 04:18:34;;;;;;;0.00;0.00;;;10.70;99.90;;;;;;5050780;28;20197;-69
2024/01/03 04:21:01;;;;;;;0.00;0.00;;;10.70;99.90;;;;;;5051044;28;20170;-67
2024/01/03 04:23:27;;;;;;;0.00;0.00;;;10.70;99.90;;;;;;5051383;28;20896;-68
2024/01/03 04:25:52;;;;;;;0.00;0.00;;;10.70;99.90;;;;;;5052113;28;20264;-67
2024/01/03 04:28:18;;;;;;;0.00;0.00;;;10.70;99.90;;;;;;5051870;28;20213;-67
2024/01/03 04:30:43;;;;;;;0.00;0.00;;;10.60;99.90;;;;;;5052035;28;20182;-66
2024/01/03 04:33:09;;;;;;;0.00;0.00;;;10.60;99.90;;;;;;5051571;28;20219;-66
2024/01/03 04:35:34;;;;;;;0.00;0.00;;;10.60;99.90;;;;;;5052174;28;20537;-66
2024/01/03 04:38:02;;;;;;;0.00;0.00;;;10.70;99.90;;;;;;5050446;28;20184;-66
2024/01/03 04:40:29;;;;;;;0.00;0.00;;;10.70;99.90;;;;;;5052180;28;20221;-66
2024/01/03 04:42:55;;;;;;;0.00;0.00;;;10.60;99.90;;;;;;5052032;28;20184;-65
2024/01/03 04:45:20;;;;;;;0.00;0.00;;;10.60;99.90;;;;;;5052547;28;20169;-64
2024/01/03 04:47:46;;;;;;;0.00;0.00;;;10.60;99.90;;;;;;5052620;28;20188;-65
2024/01/03 04:50:11;;;;;;;0.00;0.00;;;10.50;99.90;;;;;;5052644;28;20181;-63
2024/01/03 04:52:37;;;;;;;0.00;0.00;;;10.60;99.90;;;;;;5052686;28;20241;-67
2024/01/03 04:55:03;;;;;;;0.00;0.00;;;10.60;99.90;;;;;;5051899;28;20227;-66
2024/01/03 04:57:28;;;;;;;0.00;0.00;;;10.60;99.90;;;;;;5052705;28;20227;-66
2024/01/03 04:59:54;;;;;;;0.00;0.00;;;10.60;99.90;;;;;;5052206;28;20200;-66
2024/01/03 05:02:19;;;;;;;0.00;0.00;;;10.60;99.90;;;;;;5051785;28;20186;-65
2024/01/03 05:04:45;;;;;;;0.00;0.00;;;10.60;99.90;;;;;;5052540;28;20182;-66
2024/01/03 05:07:10;;;;;;;0.00;0.00;;;10.60;99.90;;;;;;5052473;28;20178;-64
2024/01/03 05:09:36;;;;;;;0.57;0.57;;;10.60;99.90;;;;;;5052281;28;20223;-64
2024/01/03 05:12:02;;;;;;;0.00;0.00;;;10.60;99.90;;;;;;5051509;28;20220;-65
2024/01/03 05:14:29;;;;;;;0.00;0.00;;;10.60;99.90;;;;;;5052367;28;20232;-65
2024/01/03 05:16:55;;;;;;;0.00;0.00;;;10.50;99.90;;;;;;5051352;28;20180;-63
2024/01/03 05:19:20;;;;;;;0.00;0.00;;;10.50;99.90;;;;;;5052425;28;20186;-64
2024/01/03 05:21:46;;;;;;;0.00;0.00;;;10.50;99.90;;;;;;5052390;28;20177;-65
2024/01/03 05:24:12;;;;;;;0.00;0.00;;;10.50;99.90;;;;;;5051827;28;20630;-64
2024/01/03 05:26:38;;;;;;;0.00;0.00;;;10.50;99.90;;;;;;5051078;28;20223;-65
2024/01/03 05:29:03;;;;;;;0.00;0.00;;;10.50;99.90;;;;;;5052214;28;20177;-65
2024/01/03 05:31:29;;;;;;;0.00;0.00;;;10.40;99.90;;;;;;5052128;28;20231;-65
2024/01/03 05:33:54;;;;;;;0.00;0.00;;;10.40;99.90;;;;;;5052171;28;20213;-65
2024/01/03 05:36:20;;;;;;;0.00;0.00;;;10.40;99.90;;;;;;5052128;28;20205;-65
2024/01/03 05:38:45;;;;;;;0.00;0.00;;;10.40;99.90;;;;;;5052095;28;20185;-65
2024/01/03 05:41:11;;;;;;;0.00;0.00;;;10.40;99.90;;;;;;5052018;28;20229;-66
2024/01/03 05:43:37;;;;;;;0.00;0.00;;;10.40;99.90;;;;;;5051904;28;20181;-65
2024/01/03 05:46:03;;;;;;;0.00;0.00;;;10.40;99.90;;;;;;5051938;28;20579;-66
2024/01/03 05:48:28;;;;;;;0.00;0.00;;;10.40;99.90;;;;;;5051972;28;20277;-66
2024/01/03 05:50:54;;;;;;;0.00;0.00;;;10.40;99.90;;;;;;5051860;28;20260;-66
2024/01/03 05:53:19;;;;;;;0.00;0.00;;;10.40;99.90;;;;;;5051461;28;20210;-65
2024/01/03 05:55:45;;;;;;;0.00;0.00;;;10.50;99.90;;;;;;5051781;28;20633;-65
2024/01/03 05:58:10;;;;;;;0.00;0.00;;;10.50;99.90;;;;;;5050350;28;20169;-66
2024/01/03 06:00:36;;;;;;;0.00;0.00;;;10.50;99.90;;;;;;5051816;28;20170;-66
2024/01/03 06:03:02;;;;;;;0.00;0.00;;;10.50;99.90;;;;;;5050127;28;20174;-65
2024/01/03 06:05:27;;;;;;;0.00;0.00;;;10.50;99.90;;;;;;5051777;28;20174;-65
2024/01/03 06:07:53;;;;;;;0.10;0.10;;;10.50;99.90;;;;;;5051623;28;20226;-65
2024/01/03 06:10:19;;;;;;;0.00;0.00;;;10.60;99.90;;;;;;5051647;28;20258;-65
2024/01/03 06:12:44;;;;;;;0.00;0.00;;;10.60;99.90;;;;;;5051219;28;20190;-65
2024/01/03 06:15:10;;;;;;;0.00;0.00;;;10.50;99.90;;;;;;5051540;28;20696;-62
2024/01/03 06:17:36;;;;;;;0.00;0.00;;;10.50;99.90;;;;;;5051603;28;20177;-62
2024/01/03 06:20:03;;;;;;;0.00;0.00;;;10.40;99.90;;;;;;5051211;28;20676;-64
2024/01/03 06:22:28;;;;;;;0.00;0.00;;;10.30;99.90;;;;;;5051558;28;20177;-64
2024/01/03 06:24:54;;;;;;;0.00;0.00;;;10.20;99.90;;;;;;5051636;28;20711;-63
2024/01/03 06:27:20;;;;;;;0.00;0.00;;;10.10;99.90;;;;;;5051565;28;20733;-63
2024/01/03 06:29:46;;;;;;;0.00;0.00;;;10.10;99.90;;;;;;5051385;28;20212;-63
2024/01/03 06:32:11;;;;;;;0.00;0.00;;;10.00;99.90;;;;;;5051423;28;20573;-64
2024/01/03 06:34:37;;;;;;;0.00;0.00;;;9.90;99.90;;;;;;5051220;28;20189;-65
2024/01/03 06:37:02;;;;;;;0.00;0.00;;;9.80;99.90;;;;;;5054101;28;20237;-64
2024/01/03 06:39:28;;;;;;;0.00;0.00;;;9.70;99.90;;;;;;5055833;28;20181;-64
2024/01/03 06:41:53;;;;;;;0.10;0.10;;;9.60;99.90;;;;;;5054135;28;20692;-65
2024/01/03 06:44:19;;;;;;;0.00;0.00;;;9.60;99.90;;;;;;5055390;28;20264;-65
2024/01/03 06:46:44;;;;;;;0.00;0.00;;;9.60;99.90;;;;;;5055369;28;20208;-63
2024/01/03 06:49:10;;;;;;;0.00;0.00;;;9.50;99.90;;;;;;5055843;28;20185;-64
2024/01/03 06:51:36;;;;;;;0.00;0.00;;;9.50;99.90;;;;;;5055596;28;20209;-63
2024/01/03 06:54:01;;;;;;;0.00;0.00;;;9.50;99.90;;;;;;5055230;28;20767;-64
2024/01/03 06:56:27;;;;;;;0.00;0.00;;;9.50;99.90;;;;;;5055290;28;20207;-64
2024/01/03 06:58:57;;;;;;;0.00;0.00;;;9.50;99.90;;;;;;5055067;28;20252;-64
2024/01/03 07:01:22;;;;;;;0.00;0.00;;;9.50;99.90;;;;;;5054980;28;20268;-64
2024/01/03 07:03:48;;;;;;;0.00;0.00;;;9.50;99.90;;;;;;5055118;28;20261;-63
2024/01/03 07:06:14;;;;;;;0.00;0.00;;;9.50;99.90;;;;;;5054973;28;20224;-64
2024/01/03 07:08:40;;;;;;;0.00;0.00;;;9.50;99.90;;;;;;5054811;28;20653;-63
2024/01/03 07:11:06;;;;;;;0.00;0.00;;;9.50;99.90;;;;;;5054932;28;20221;-64
2024/01/03 07:13:32;;;;;;;0.00;0.00;;;9.50;99.90;;;;;;5054705;28;20216;-64
2024/01/03 07:15:58;;;;;;;0.00;0.00;;;9.60;99.90;;;;;;5054219;28;20189;-65
2024/01/03 07:18:23;;;;;;;0.00;0.00;;;9.60;99.90;;;;;;5054870;28;20177;-65
2024/01/03 07:20:49;;;;;;;0.00;0.00;;;9.60;99.90;;;;;;5054750;28;20244;-65
2024/01/03 07:23:14;;;;;;;0.00;0.00;;;9.60;99.90;;;;;;5054804;28;20178;-65
2024/01/03 07:25:40;;;;;;;0.00;0.00;;;9.70;99.90;;;;;;5054526;28;20257;-64
2024/01/03 07:28:05;;;;;;;0.45;0.45;;;9.70;99.90;;;;;;5054662;28;20212;-64
2024/01/03 07:30:31;;;;;;;0.00;0.00;;;9.70;99.90;;;;;;5054319;28;20543;-64
2024/01/03 07:32:57;;;;;;;0.00;0.00;;;9.80;99.90;;;;;;5053886;28;20201;-64
2024/01/03 07:35:24;;;;;;;0.00;0.00;;;9.80;99.90;;;;;;5054558;28;20512;-64
2024/01/03 07:37:50;;;;;;;0.00;0.00;;;9.90;99.90;;;;;;5054259;28;20200;-65
2024/01/03 07:40:16;;;;;;;0.00;0.00;;;10.00;99.90;;;;;;5054267;28;20716;-64
2024/01/03 07:42:42;;;;;;;0.00;0.00;;;10.00;99.90;;;;;;5053046;28;20178;-64
2024/01/03 07:45:08;;;;;;;0.00;0.00;;;10.10;99.90;;;;;;5054221;28;20187;-64
2024/01/03 07:47:33;;;;;;;0.00;0.00;;;10.10;99.90;;;;;;5053796;28;20182;-64
2024/01/03 07:49:59;;;;;;;0.00;0.00;;;10.10;99.90;;;;;;5053071;28;20182;-64
2024/01/03 07:52:25;;;;;;;0.00;0.00;;;10.20;99.90;;;;;;5053200;28;20189;-64
2024/01/03 07:54:51;;;;;;;0.00;0.00;;;10.30;99.90;;;;;;5054079;28;20688;-64
2024/01/03 07:57:16;;;;;;;0.00;0.00;;;10.30;99.90;;;;;;5054081;28;20173;-64
2024/01/03 07:59:44;;;;;;;0.00;0.00;;;10.30;99.90;;;;;;5054770;28;20193;-64
2024/01/03 08:02:11;;;;;;;0.00;0.00;;;10.30;99.90;;;;;;5054104;28;20197;-65
2024/01/03 08:04:36;;;;;;;0.00;0.00;;;10.40;99.90;;;;;;5053936;28;20625;-64
2024/01/03 08:07:02;;;;;;;0.00;0.00;;;10.40;99.90;;;;;;5052494;28;20189;-65
2024/01/03 08:09:27;;;;;;;0.00;0.00;;;10.50;99.90;;;;;;5053890;28;20177;-65
2024/01/03 08:11:53;;;;;;;0.00;0.00;;;10.50;99.90;;;;;;5053670;28;20263;-65
2024/01/03 08:14:18;;;;;;;0.00;0.00;;;10.60;99.90;;;;;;5053743;28;20217;-66
2024/01/03 08:16:44;;;;;;;0.00;0.00;;;10.60;99.90;;;;;;5053366;28;20169;-65
2024/01/03 08:19:09;;;;;;;0.00;0.00;;;10.70;99.90;;;;;;5053736;28;20213;-66
2024/01/03 08:21:35;;;;;;;0.00;0.00;;;10.80;99.90;;;;;;5053401;28;20235;-66
2024/01/03 08:24:00;;;;;;;0.00;0.00;;;10.80;99.90;;;;;;5053224;28;20533;-66
2024/01/03 08:26:26;;;;;;;0.00;0.00;;;10.80;99.90;;;;;;5053434;28;20182;-66
2024/01/03 08:28:52;;;;;;;0.00;0.00;;;10.80;99.90;;;;;;5053234;28;20174;-65
2024/01/03 08:31:18;;;;;;;0.00;0.00;;;10.90;99.90;;;;;;5051703;28;20185;-66
2024/01/03 08:33:44;;;;;;;0.00;0.00;;;10.90;99.90;;;;;;5053034;28;20217;-67
2024/01/03 08:36:14;;;;;;;0.00;0.00;;;10.90;99.90;;;;;;5053476;28;20218;-67
2024/01/03 08:38:40;;;;;;;0.00;0.00;;;11.00;99.90;;;;;;5052771;28;20195;-66
2024/01/03 08:41:15;;;;;;;0.00;0.00;;;11.00;99.90;;;;;;5053038;28;20311;-66
2024/01/03 08:43:41;;;;;;;0.00;0.00;;;11.00;99.90;;;;;;5053156;28;20268;-66
2024/01/03 08:46:07;;;;;;;0.00;0.00;;;11.00;99.90;;;;;;5052522;28;20260;-66
2024/01/03 08:48:33;;;;;;;0.00;0.00;;;10.90;99.90;;;;;;5052792;28;20178;-66
2024/01/03 08:50:58;;;;;;;0.00;0.00;;;10.90;99.90;;;;;;5052853;28;20182;-65
2024/01/03 08:53:24;;;;;;;0.00;0.00;;;10.80;99.90;;;;;;5052820;28;20217;-64
2024/01/03 08:55:50;;;;;;;0.00;0.00;;;10.70;99.90;;;;;;5051647;28;20177;-64
2024/01/03 08:58:15;;;;;;;0.00;0.00;;;10.70;99.90;;;;;;5053029;28;20188;-64
2024/01/03 09:00:43;;;;;;;0.00;0.00;;;10.60;99.90;;;;;;5051944;28;20178;-65
2024/01/03 09:03:09;;;;;;;0.00;0.00;;;10.60;99.90;;;;;;5052654;28;20186;-66
2024/01/03 09:05:34;;;;;;;0.00;0.00;;;10.60;99.90;;;;;;5052718;28;20177;-66
2024/01/03 09:08:00;;;;;;;0.00;0.00;;;10.70;99.90;;;;;;5052193;28;20629;-68
2024/01/03 09:10:25;;;;;;;0.00;0.00;;;10.70;99.90;;;;;;5052403;28;20303;-67
2024/01/03 09:12:51;;;;;;;0.00;0.00;;;10.80;99.90;;;;;;5052136;28;20193;-67
2024/01/03 09:15:16;;;;;;;0.00;0.00;;;10.80;99.90;;;;;;5052471;28;20184;-66
2024/01/03 09:17:43;;;;;;;0.00;0.00;;;10.90;99.90;;;;;;5052410;28;20671;-66
2024/01/03 09:20:10;;;;;;;0.00;0.00;;;11.00;99.90;;;;;;5052424;28;20182;-65
2024/01/03 09:22:36;;;;;;;0.00;0.00;;;11.10;99.90;;;;;;5052503;28;20189;-66
2024/01/03 09:25:02;;;;;;;0.00;0.00;;;11.10;99.90;;;;;;5052414;28;20708;-66
2024/01/03 09:27:27;;;;;;;0.00;0.00;;;11.20;99.90;;;;;;5052214;28;20183;-68
2024/01/03 09:29:53;;;;;;;0.00;0.00;;;11.20;99.90;;;;;;5052175;28;20201;-67
2024/01/03 09:32:19;;;;;;;0.00;0.00;;;11.20;99.90;;;;;;5052178;28;20207;-72
2024/01/03 09:34:44;;;;;;;0.00;0.00;;;11.20;99.90;;;;;;5050442;28;20667;-68
2024/01/03 09:37:10;;;;;;;0.00;0.00;;;11.20;99.90;;;;;;5052106;28;20228;-68
2024/01/03 09:39:35;;;;;;;0.00;0.00;;;11.20;99.90;;;;;;5051875;28;20173;-66
2024/01/03 09:42:03;;;;;;;0.00;0.00;;;11.20;99.90;;;;;;5051974;28;20209;-70
2024/01/03 09:44:29;;;;;;;0.00;0.00;;;11.20;99.90;;;;;;5051960;28;20273;-69
2024/01/03 09:46:55;;;;;;;0.00;0.00;;;11.30;99.90;;;;;;5051258;28;20728;-69
2024/01/03 09:49:20;;;;;;;0.00;0.00;;;11.30;99.90;;;;;;5051945;28;20252;-68
2024/01/03 09:51:47;;;;;;;0.00;0.00;;;11.40;99.90;;;;;;5051033;28;20728;-68
2024/01/03 09:54:13;;;;;;;0.00;0.00;;;11.30;99.90;;;;;;5051849;28;20328;-69
2024/01/03 09:56:40;;;;;;;0.00;0.00;;;11.30;99.90;;;;;;5051747;28;20908;-69
2024/01/03 09:59:06;;;;;;;0.00;0.00;;;11.30;99.90;;;;;;5051533;28;20224;-68
2024/01/03 10:01:32;;;;;;;0.00;0.00;;;11.30;99.90;;;;;;5051542;28;20172;-68
2024/01/03 10:03:58;;;;;;;0.00;0.00;;;11.30;99.90;;;;;;5051222;28;20779;-67
2024/01/03 10:06:24;;;;;;;0.00;0.00;;;11.30;99.90;;;;;;5051615;28;20256;-67
2024/01/03 10:09:00;;;;;;;0.00;0.00;;;11.30;99.90;;;;;;5050196;28;20268;-67
2024/01/03 10:11:26;;;;;;;0.00;0.00;;;11.20;99.90;;;;;;5051359;28;20181;-69
2024/01/03 10:13:54;;;;;;;0.00;0.00;;;11.20;99.90;;;;;;5051424;28;20213;-67
2024/01/03 10:16:27;;;;;;;0.00;0.00;;;11.10;99.90;;;;;;5051393;28;20179;-68
2024/01/03 10:19:18;;;;;;;0.00;0.00;;;11.10;99.90;;;;;;5051471;28;20188;-67
2024/01/03 10:21:48;;;;;;;0.00;0.00;;;11.00;99.90;;;;;;5051244;28;20641;-67
2024/01/03 10:24:13;;;;;;;0.00;0.00;;;10.90;99.90;;;;;;5051463;28;20177;-67
2024/01/03 10:26:39;;;;;;;0.00;0.00;;;10.90;99.90;;;;;;5051437;28;20173;-67
2024/01/03 10:29:12;;;;;;;0.00;0.00;;;10.80;99.90;;;;;;5051420;28;20173;-68
2024/01/03 10:31:38;;;;;;;0.00;0.00;;;10.80;99.90;;;;;;5051352;28;20178;-66
2024/01/03 10:34:06;;;;;;;0.00;0.00;;;11.00;99.90;;;;;;5051077;28;20695;-67
2024/01/03 10:36:36;;;;;;;0.00;0.00;;;11.00;99.90;;;;;;5050196;28;20519;-68
2024/01/03 10:39:02;;;;;;;0.00;0.00;;;11.10;99.90;;;;;;5051265;28;20181;-68
2024/01/03 10:41:34;;;;;;;0.00;0.00;;;11.10;99.90;;;;;;5051203;28;20315;-68
2024/01/03 10:44:02;;;;;;;0.00;0.00;;;11.10;99.90;;;;;;5051228;28;20578;-69
2024/01/03 10:46:28;;;;;;;0.00;0.00;;;11.10;99.90;;;;;;5055020;28;20187;-69
2024/01/03 10:48:54;;;;;;;0.00;0.00;;;11.00;99.90;;;;;;5071108;28;20184;-67
2024/01/03 10:51:22;;;;;;;0.00;0.00;;;11.10;99.90;;;;;;5071211;28;20192;-68
2024/01/03 10:53:50;;;;;;;0.00;0.00;;;11.20;99.90;;;;;;5052092;28;20213;-69
2024/01/03 10:56:16;;;;;;;0.00;0.00;;;11.10;99.90;;;;;;5051185;28;20174;-69
2024/01/03 10:58:41;;;;;;;0.00;0.00;;;11.10;99.90;;;;;;5051220;28;20336;-69
2024/01/03 11:01:21;;;;;;;0.00;0.00;;;11.10;99.90;;;;;;5050517;28;20641;-68
2024/01/03 11:04:30;;;;;;;0.00;0.00;;;11.00;99.90;;;;;;5050856;28;20184;-68
2024/01/03 11:07:19;;;;;;;0.00;0.00;;;10.90;99.90;;;;;;5031595;28;20193;-67
2024/01/03 11:09:45;;;;;;;0.00;0.00;;;11.00;99.90;;;;;;5044854;28;20224;-67
2024/01/03 11:12:13;;;;;;;0.10;0.10;;;11.00;99.90;;;;;;5051076;28;20173;-67
2024/01/03 11:14:38;;;;;;;0.00;0.00;;;11.00;99.90;;;;;;5050242;28;20225;-68
2024/01/03 11:17:06;;;;;;;0.00;0.00;;;11.00;99.90;;;;;;5060989;28;20578;-67
2024/01/03 11:19:32;;;;;;;0.00;0.00;;;11.00;99.90;;;;;;5070878;28;20529;-67
2024/01/03 11:21:59;;;;;;;0.00;0.00;;;11.10;99.90;;;;;;5070831;28;20184;-68
2024/01/03 11:24:28;;;;;;;0.00;0.00;;;11.20;99.90;;;;;;5074544;28;20207;-71
2024/01/03 11:26:56;;;;;;;0.00;0.00;;;11.30;99.90;;;;;;5074278;28;20188;-73
2024/01/03 11:32:12;;;;;;;0.00;0.00;;;11.40;99.90;;;;;;5054635;28;20189;-72
2024/01/03 11:34:48;;;;;;;0.00;0.00;;;11.40;99.90;;;;;;5054671;28;20213;-71
2024/01/03 11:37:16;;;;;;;0.00;0.00;;;11.50;99.90;;;;;;5054588;28;20678;-74
2024/01/03 11:39:45;;;;;;;0.00;0.00;;;11.50;99.90;;;;;;5053946;28;20551;-70
2024/01/03 11:42:18;;;;;;;0.00;0.00;;;11.50;99.90;;;;;;5054043;28;20189;-73
2024/01/03 11:44:46;;;;;;;0.00;0.00;;;11.40;99.90;;;;;;5054154;28;20177;-74
2024/01/03 11:47:12;;;;;;;0.00;0.00;;;11.50;99.90;;;;;;5058193;28;20181;-76
2024/01/03 11:49:38;;;;;;;0.00;0.00;;;11.50;99.90;;;;;;5054059;28;20193;-74
2024/01/03 11:52:03;;;;;;;0.00;0.00;;;11.60;99.90;;;;;;5054057;28;20181;-73
2024/01/03 11:54:32;;;;;;;0.00;0.00;;;11.60;99.90;;;;;;5054029;28;20213;-75
2024/01/03 11:56:58;;;;;;;0.00;0.00;;;11.50;99.90;;;;;;5054175;28;20176;-75
2024/01/03 11:59:24;;;;;;;0.00;0.00;;;11.60;99.90;;;;;;5053945;28;20181;-77
2024/01/03 12:02:00;;;;;;;0.15;0.15;;;11.60;99.90;;;;;;5052702;28;20220;-78
2024/01/03 12:04:26;;;;;;;0.00;0.00;;;11.60;99.90;;;;;;5053800;28;20184;-75
2024/01/03 12:06:59;;;;;;;0.00;0.00;;;11.50;99.90;;;;;;5054078;28;20174;-75
2024/01/03 12:09:29;;;;;;;0.00;0.00;;;11.40;99.90;;;;;;5053752;28;20641;-75
2024/01/03 12:11:55;;;;;;;0.00;0.00;;;11.40;99.90;;;;;;5053796;28;20223;-75
2024/01/03 12:14:20;;;;;;;0.00;0.00;;;11.30;99.90;;;;;;5053687;28;20217;-75
2024/01/03 12:16:54;;;;;;;0.00;0.00;;;11.30;99.90;;;;;;5061198;28;20207;-74
2024/01/03 12:19:23;;;;;;;0.00;0.00;;;11.50;99.90;;;;;;5073735;28;20179;-73
2024/01/03 12:21:59;;;;;;;0.00;0.00;;;11.70;99.90;;;;;;5073558;28;20165;-72
2024/01/03 12:24:43;;;;;;;0.00;0.00;;;11.80;99.90;;;;;;5073463;28;20165;-72
2024/01/03 12:27:08;;;;;;;0.00;0.00;;;11.80;99.90;;;;;;5073544;28;20605;-73
2024/01/03 12:29:35;;;;;;;0.00;0.00;;;11.80;99.90;;;;;;5073504;28;20212;-74
2024/01/03 12:32:17;;;;;;;0.00;0.00;;;11.70;99.90;;;;;;5072071;28;20184;-74
2024/01/03 12:34:44;;;;;;;0.00;0.00;;;11.60;99.90;;;;;;5073365;28;20571;-73
2024/01/03 12:37:09;;;;;;;0.00;0.00;;;11.50;99.90;;;;;;5072131;28;20173;-72
2024/01/03 12:39:36;;;;;;;0.00;0.00;;;11.40;99.90;;;;;;5073288;28;20169;-71
2024/01/03 12:42:05;;;;;;;0.00;0.00;;;11.30;99.90;;;;;;5065947;28;20693;-72
2024/01/03 12:44:31;;;;;;;0.00;0.00;;;11.30;99.90;;;;;;5053191;28;20177;-75
2024/01/03 12:46:57;;;;;;;0.00;0.00;;;11.30;99.90;;;;;;5062376;28;20185;-74
2024/01/03 12:49:23;;;;;;;0.00;0.00;;;11.40;99.90;;;;;;5073136;28;20205;-74
2024/01/03 12:51:48;;;;;;;0.00;0.00;;;11.30;99.90;;;;;;5072991;28;20237;-72